TimeSAST,TemperatureF,Dew PointF,Humidity,Sea Level PressureIn,VisibilityMPH,Wind Direction,Wind SpeedMPH,Gust SpeedMPH,PrecipitationIn,Events,Conditions,WindDirDegrees,DateUTC
12:00 AM,48.2,46.4,93,30.06,5.0,Variable,2.3,-,N/A,,Unknown,0,2013-08-05 22:00:00
1:00 AM,46.4,44.6,93,30.04,4.3,Variable,2.3,-,N/A,,Unknown,0,2013-08-05 23:00:00
2:00 AM,44,42,90,30.04,6,,2.3,,,,,,2013-08-06 00:00:00
3:00 AM,46.4,44.6,93,30.01,4.3,NW,4.6,-,N/A,,Overcast,320,2013-08-06 01:00:00
4:00 AM,50.0,48.2,94,29.98,5.6,Variable,1.2,-,N/A,,Overcast,0,2013-08-06 02:00:00
5:00 AM,51,49,90,29.98,3,,2.3,,,,Mist,,2013-08-06 03:00:00
5:00 AM,51.8,48.2,88,29.98,3.1,Variable,2.3,-,N/A,,Mostly Cloudy,0,2013-08-06 03:00:00
6:00 AM,51.8,50.0,94,29.98,0.5,Variable,2.3,-,N/A,Fog,Fog,0,2013-08-06 04:00:00
7:00 AM,50.0,48.2,94,29.98,0.5,NNW,6.9,-,N/A,Fog,Fog,330,2013-08-06 05:00:00
8:00 AM,49,47,90,30.01,2,NW,6.9,,,,Partly Cloudy,320,2013-08-06 06:00:00
8:00 AM,48.2,46.4,93,30.01,3.7,NW,5.8,-,N/A,,Overcast,320,2013-08-06 06:00:00
9:00 AM,50.0,50.0,100,30.01,4.3,NW,6.9,-,N/A,,Mostly Cloudy,320,2013-08-06 07:00:00
10:00 AM,53.6,50.0,88,30.01,3.7,West,8.1,-,N/A,,Mostly Cloudy,280,2013-08-06 08:00:00
11:00 AM,58,50,67,30.03,12,WSW,11.5,,,,Partly Cloudy,240,2013-08-06 09:00:00
11:00 AM,59.0,50.0,72,30.01,6.2,WSW,10.4,-,N/A,,Mostly Cloudy,240,2013-08-06 09:00:00
12:00 PM,60.8,50.0,68,30.01,6.2,West,10.4,-,N/A,,Scattered Clouds,270,2013-08-06 10:00:00
1:00 PM,62.6,50.0,63,29.98,6.2,West,9.2,-,N/A,,Partly Cloudy,270,2013-08-06 11:00:00
2:00 PM,62,50,55,29.96,12,SSW,10.4,,,,Scattered Clouds,200,2013-08-06 12:00:00
2:00 PM,62.6,50.0,63,29.95,6.2,SSW,10.4,-,N/A,,Partly Cloudy,200,2013-08-06 12:00:00
3:00 PM,60.8,50.0,68,29.95,6.2,South,9.2,-,N/A,,Partly Cloudy,190,2013-08-06 13:00:00
4:00 PM,59.0,51.8,77,29.95,6.2,SSW,10.4,-,N/A,,Scattered Clouds,210,2013-08-06 14:00:00
5:00 PM,56,49,71,29.95,12,WSW,4.6,,,,Partly Cloudy,240,2013-08-06 15:00:00
6:00 PM,57.2,50.0,77,29.95,6.2,WNW,4.6,-,N/A,,Mostly Cloudy,290,2013-08-06 16:00:00
7:00 PM,55.4,51.8,88,29.95,6.2,SW,4.6,-,N/A,,Mostly Cloudy,230,2013-08-06 17:00:00
8:00 PM,55.4,51.8,88,29.95,3.7,West,2.3,-,N/A,Rain,Light Rain,280,2013-08-06 18:00:00
9:00 PM,53.6,51.8,94,29.98,3.1,SW,8.1,-,N/A,,Drizzle,220,2013-08-06 19:00:00
10:00 PM,53.6,50.0,88,29.98,6.2,West,8.1,-,N/A,,Mostly Cloudy,270,2013-08-06 20:00:00
11:00 PM,51.8,50.0,94,29.95,6.2,WNW,11.5,-,N/A,,Overcast,290,2013-08-06 21:00:00